Time;durP1;ratioP1;P1;durP2;ratioP2;P2;SDS_P1;SDS_P2;PMS_P1;PMS_P2;Temp;Humidity;BMP_temperature;BMP_pressure;BME280_temperature;BME280_humidity;BME280_pressure;Samples;Min_cycle;Max_cycle;Signal;HPM_P1;HPM_P2
2021/08/25 00:00:29;;;;;;;7.10;2.85;;;;;;;;;;5004210;28;20546;-86
2021/08/25 00:02:57;;;;;;;11.15;3.60;;;;;;;;;;4999059;28;20483;-86
2021/08/25 00:05:25;;;;;;;6.53;2.60;;;;;;;;;;5003958;28;20054;-86
2021/08/25 00:07:54;;;;;;;10.82;2.50;;;;;;;;;;5013707;28;20140;-86
2021/08/25 00:10:21;;;;;;;6.32;2.72;;;;;;;;;;5011035;28;20141;-86
2021/08/25 00:12:49;;;;;;;10.10;3.28;;;;;;;;;;5011513;28;20080;-87
2021/08/25 00:15:16;;;;;;;6.97;2.55;;;;;;;;;;5008277;28;20057;-86
2021/08/25 00:17:43;;;;;;;6.40;2.88;;;;;;;;;;5010736;28;20137;-86
2021/08/25 00:20:11;;;;;;;8.65;2.58;;;;;;;;;;4997267;28;20746;-86
2021/08/25 00:22:38;;;;;;;6.18;2.15;;;;;;;;;;5005554;28;20077;-85
2021/08/25 00:25:06;;;;;;;8.48;2.67;;;;;;;;;;4995419;28;20554;-85
2021/08/25 00:27:33;;;;;;;5.22;2.40;;;;;;;;;;5011197;28;20567;-86
2021/08/25 00:30:03;;;;;;;4.78;2.20;;;;;;;;;;5010298;28;20088;-86
2021/08/25 00:32:30;;;;;;;17.23;3.90;;;;;;;;;;5005823;28;20054;-86
2021/08/25 00:34:59;;;;;;;12.77;3.10;;;;;;;;;;4999871;28;20140;-86
2021/08/25 00:37:26;;;;;;;8.07;2.67;;;;;;;;;;5023904;28;20058;-85
2021/08/25 00:39:53;;;;;;;8.32;2.75;;;;;;;;;;4982718;28;20037;-86
2021/08/25 00:42:20;;;;;;;7.35;2.80;;;;;;;;;;5001967;28;20045;-86
2021/08/25 00:44:48;;;;;;;14.63;3.10;;;;;;;;;;5009050;28;20041;-86
2021/08/25 00:47:16;;;;;;;7.25;3.60;;;;;;;;;;4991176;28;20145;-86
2021/08/25 00:49:45;;;;;;;10.73;3.00;;;;;;;;;;5016208;28;20050;-86
2021/08/25 00:52:12;;;;;;;11.20;3.78;;;;;;;;;;4994837;28;20085;-86
2021/08/25 00:54:41;;;;;;;7.53;2.72;;;;;;;;;;4992088;28;20052;-84
2021/08/25 00:57:08;;;;;;;6.93;2.35;;;;;;;;;;5011533;28;20056;-87
2021/08/25 00:59:35;;;;;;;7.68;2.53;;;;;;;;;;5008805;28;20380;-86
2021/08/25 01:02:05;;;;;;;6.65;2.55;;;;;;;;;;5003689;28;20596;-86
2021/08/25 01:04:35;;;;;;;7.05;2.50;;;;;;;;;;5003069;28;20429;-87
2021/08/25 01:07:03;;;;;;;9.50;2.60;;;;;;;;;;5005377;28;20081;-87
2021/08/25 01:09:30;;;;;;;7.90;2.63;;;;;;;;;;4994378;28;20133;-87
2021/08/25 01:12:00;;;;;;;5.45;2.78;;;;;;;;;;5009693;28;20096;-86
2021/08/25 01:14:30;;;;;;;8.50;2.92;;;;;;;;;;5006505;28;20100;-86
2021/08/25 01:16:58;;;;;;;7.57;2.80;;;;;;;;;;5003884;28;20070;-87
2021/08/25 01:19:27;;;;;;;5.88;3.13;;;;;;;;;;4987676;28;20053;-86
2021/08/25 01:21:54;;;;;;;10.43;3.10;;;;;;;;;;5010508;28;20060;-86
2021/08/25 01:24:22;;;;;;;7.95;3.33;;;;;;;;;;5009115;28;20073;-86
2021/08/25 01:26:53;;;;;;;7.50;3.00;;;;;;;;;;4988068;28;20129;-87
2021/08/25 01:29:28;;;;;;;6.68;3.20;;;;;;;;;;4990711;28;20127;-86
2021/08/25 01:32:04;;;;;;;10.45;3.47;;;;;;;;;;4990412;28;20056;-86
2021/08/25 01:34:47;;;;;;;6.57;3.10;;;;;;;;;;5007197;28;20790;-86
2021/08/25 01:37:14;;;;;;;10.38;3.33;;;;;;;;;;4997808;28;20053;-86
2021/08/25 01:39:59;;;;;;;5.90;2.55;;;;;;;;;;5024888;28;20528;-86
2021/08/25 01:42:26;;;;;;;7.25;2.72;;;;;;;;;;5005926;28;20877;-85
2021/08/25 01:44:54;;;;;;;4.53;2.55;;;;;;;;;;4997872;28;20046;-86
2021/08/25 01:47:21;;;;;;;7.68;2.92;;;;;;;;;;5012149;28;20069;-86
2021/08/25 01:49:49;;;;;;;7.25;2.70;;;;;;;;;;5007852;28;20045;-87
2021/08/25 01:52:17;;;;;;;11.65;2.70;;;;;;;;;;5012423;28;20141;-87
2021/08/25 01:54:46;;;;;;;5.63;2.47;;;;;;;;;;5006657;28;20046;-87
2021/08/25 01:57:13;;;;;;;7.35;2.55;;;;;;;;;;4997958;28;20822;-87
2021/08/25 01:59:40;;;;;;;8.35;3.58;;;;;;;;;;5021133;28;20081;-87
2021/08/25 02:02:08;;;;;;;6.28;2.85;;;;;;;;;;5012973;28;20113;-87
2021/08/25 02:04:37;;;;;;;6.90;2.95;;;;;;;;;;5007237;28;20046;-86
2021/08/25 02:07:05;;;;;;;8.25;3.78;;;;;;;;;;5012063;28;20128;-86
2021/08/25 02:09:32;;;;;;;7.03;3.15;;;;;;;;;;5011316;28;20128;-86
2021/08/25 02:12:00;;;;;;;9.02;3.50;;;;;;;;;;5005905;28;20141;-86
2021/08/25 02:14:28;;;;;;;7.20;3.03;;;;;;;;;;5003248;28;20077;-86
2021/08/25 02:16:55;;;;;;;7.70;3.17;;;;;;;;;;5011401;28;20073;-86
2021/08/25 02:19:22;;;;;;;6.10;2.70;;;;;;;;;;4996595;28;20073;-86
2021/08/25 02:21:49;;;;;;;5.35;2.50;;;;;;;;;;5009127;28;20080;-87
2021/08/25 02:24:17;;;;;;;6.65;2.95;;;;;;;;;;4995283;28;20080;-86
2021/08/25 02:26:50;;;;;;;5.20;2.67;;;;;;;;;;5000907;28;20460;-86
2021/08/25 02:29:17;;;;;;;7.22;3.05;;;;;;;;;;5011367;28;20053;-86
2021/08/25 02:31:47;;;;;;;6.90;2.40;;;;;;;;;;4995538;28;20132;-86
2021/08/25 02:34:14;;;;;;;8.73;2.97;;;;;;;;;;5010042;28;20453;-87
2021/08/25 02:36:42;;;;;;;7.22;2.42;;;;;;;;;;5005435;28;20096;-86
2021/08/25 02:39:09;;;;;;;10.93;3.55;;;;;;;;;;5003813;28;20092;-86
2021/08/25 02:41:37;;;;;;;5.82;2.60;;;;;;;;;;4983830;28;20042;-86
2021/08/25 02:44:06;;;;;;;7.80;3.35;;;;;;;;;;5008639;28;20038;-85
2021/08/25 02:46:33;;;;;;;12.25;3.30;;;;;;;;;;5017738;28;20049;-85
2021/08/25 02:49:03;;;;;;;7.68;2.95;;;;;;;;;;5009124;28;20051;-86
2021/08/25 02:51:30;;;;;;;8.68;3.25;;;;;;;;;;5007128;28;20060;-86
2021/08/25 02:53:57;;;;;;;6.93;3.13;;;;;;;;;;5006672;28;20092;-86
2021/08/25 02:56:24;;;;;;;6.90;3.38;;;;;;;;;;5011494;28;20092;-86
2021/08/25 02:58:51;;;;;;;9.15;3.50;;;;;;;;;;4999426;28;20054;-86
2021/08/25 03:01:19;;;;;;;11.65;3.53;;;;;;;;;;5015297;28;20046;-86
2021/08/25 03:03:47;;;;;;;8.88;3.63;;;;;;;;;;4999280;28;20046;-86
2021/08/25 03:06:14;;;;;;;8.13;3.58;;;;;;;;;;5007584;28;20768;-86
2021/08/25 03:08:41;;;;;;;9.38;3.00;;;;;;;;;;5015367;28;20132;-86
2021/08/25 03:11:12;;;;;;;7.80;3.13;;;;;;;;;;5022841;28;20137;-86
2021/08/25 03:13:39;;;;;;;7.57;3.25;;;;;;;;;;5011771;28;20073;-86
2021/08/25 03:16:10;;;;;;;7.80;2.85;;;;;;;;;;4994058;28;20116;-86
2021/08/25 03:18:37;;;;;;;14.07;3.65;;;;;;;;;;5016445;28;20486;-87
2021/08/25 03:21:05;;;;;;;6.40;3.08;;;;;;;;;;5012738;28;20852;-86
2021/08/25 03:23:32;;;;;;;10.05;3.35;;;;;;;;;;5023506;28;20878;-87
2021/08/25 03:25:59;;;;;;;6.63;3.20;;;;;;;;;;5020083;28;20070;-86
2021/08/25 03:28:26;;;;;;;6.60;3.08;;;;;;;;;;5002247;28;20124;-87
2021/08/25 03:30:57;;;;;;;9.02;3.72;;;;;;;;;;5010118;28;20112;-85
2021/08/25 03:33:24;;;;;;;9.07;3.92;;;;;;;;;;5001908;28;20137;-87
2021/08/25 03:35:51;;;;;;;8.80;3.35;;;;;;;;;;5010798;28;20153;-86
2021/08/25 03:38:19;;;;;;;7.15;3.50;;;;;;;;;;5010346;28;20116;-86
2021/08/25 03:40:46;;;;;;;9.95;4.05;;;;;;;;;;5010595;28;20547;-86
2021/08/25 03:43:13;;;;;;;8.63;3.90;;;;;;;;;;5006861;28;20045;-87
2021/08/25 03:45:41;;;;;;;8.35;3.85;;;;;;;;;;5000548;28;20057;-86
2021/08/25 03:48:08;;;;;;;6.75;3.33;;;;;;;;;;5007681;28;20077;-87
2021/08/25 03:50:36;;;;;;;8.93;3.97;;;;;;;;;;4997052;28;20418;-86
2021/08/25 03:53:03;;;;;;;7.95;3.42;;;;;;;;;;5009258;28;20092;-86
2021/08/25 03:55:30;;;;;;;6.78;2.90;;;;;;;;;;5009691;28;20681;-86
2021/08/25 03:57:57;;;;;;;7.53;4.00;;;;;;;;;;5005454;28;20092;-86
2021/08/25 04:00:24;;;;;;;8.77;2.90;;;;;;;;;;5008549;28;20046;-89
2021/08/25 04:02:52;;;;;;;10.07;3.72;;;;;;;;;;5011482;28;20096;-87
2021/08/25 04:05:19;;;;;;;6.35;2.90;;;;;;;;;;5006660;28;20069;-87
2021/08/25 04:07:46;;;;;;;8.68;3.80;;;;;;;;;;4991617;28;20738;-88
2021/08/25 04:10:14;;;;;;;9.45;3.88;;;;;;;;;;5005864;28;20124;-88
2021/08/25 04:12:41;;;;;;;10.25;3.78;;;;;;;;;;5004454;28;20788;-87
2021/08/25 04:15:09;;;;;;;6.20;3.15;;;;;;;;;;5001891;28;20632;-88
2021/08/25 04:17:38;;;;;;;9.07;4.22;;;;;;;;;;5015317;28;20828;-87
2021/08/25 04:20:05;;;;;;;9.18;3.45;;;;;;;;;;5007359;28;20127;-87
2021/08/25 04:22:43;;;;;;;10.95;3.85;;;;;;;;;;4992153;28;20406;-87
2021/08/25 04:25:10;;;;;;;8.68;3.83;;;;;;;;;;5000550;28;20872;-87
2021/08/25 04:27:37;;;;;;;10.30;3.70;;;;;;;;;;5011563;28;20077;-87
2021/08/25 04:30:08;;;;;;;13.05;3.58;;;;;;;;;;5017219;28;20077;-87
2021/08/25 04:32:36;;;;;;;11.73;4.10;;;;;;;;;;5001927;28;20132;-88
2021/08/25 04:35:06;;;;;;;9.90;4.25;;;;;;;;;;4997239;28;20468;-88
2021/08/25 04:37:33;;;;;;;11.30;4.40;;;;;;;;;;5009923;28;20131;-87
2021/08/25 04:40:00;;;;;;;9.40;4.10;;;;;;;;;;5015384;28;20447;-86
2021/08/25 04:42:36;;;;;;;14.43;4.43;;;;;;;;;;4998342;28;20136;-87
2021/08/25 04:45:03;;;;;;;10.25;4.70;;;;;;;;;;5007836;28;20101;-87
2021/08/25 04:47:31;;;;;;;16.60;4.20;;;;;;;;;;5010437;28;20395;-87
2021/08/25 04:49:58;;;;;;;10.57;4.20;;;;;;;;;;4994968;28;20533;-86
2021/08/25 04:52:25;;;;;;;10.15;4.18;;;;;;;;;;5002051;28;20133;-87
2021/08/25 04:54:52;;;;;;;13.48;4.60;;;;;;;;;;5008645;28;20092;-86
2021/08/25 04:57:28;;;;;;;9.68;4.55;;;;;;;;;;4992877;28;20141;-92
2021/08/25 04:59:55;;;;;;;16.35;5.07;;;;;;;;;;5010982;28;20054;-89
2021/08/25 05:02:24;;;;;;;16.05;4.47;;;;;;;;;;4998910;28;20056;-89
2021/08/25 05:04:51;;;;;;;14.90;4.57;;;;;;;;;;5005454;28;20045;-88
2021/08/25 05:07:19;;;;;;;10.40;4.20;;;;;;;;;;5010932;28;20129;-88
2021/08/25 05:09:46;;;;;;;11.23;4.85;;;;;;;;;;5010469;28;20706;-88
2021/08/25 05:12:16;;;;;;;11.10;4.35;;;;;;;;;;5010375;28;20100;-86
2021/08/25 05:14:43;;;;;;;10.40;4.00;;;;;;;;;;4994438;28;20046;-90
2021/08/25 05:17:10;;;;;;;10.38;3.70;;;;;;;;;;4991815;28;20092;-89
2021/08/25 05:19:37;;;;;;;11.20;3.55;;;;;;;;;;5000216;28;20125;-84
2021/08/25 05:22:06;;;;;;;7.30;3.25;;;;;;;;;;5012579;28;20136;-83
2021/08/25 05:24:34;;;;;;;11.45;3.90;;;;;;;;;;5012338;28;20037;-84
2021/08/25 05:27:02;;;;;;;11.45;4.22;;;;;;;;;;5009581;28;20153;-86
2021/08/25 05:29:29;;;;;;;9.00;3.72;;;;;;;;;;5001258;28;20078;-83
2021/08/25 05:31:57;;;;;;;15.02;4.25;;;;;;;;;;5008865;28;20132;-79
2021/08/25 05:34:24;;;;;;;8.75;3.50;;;;;;;;;;5000407;28;20053;-84
2021/08/25 05:36:56;;;;;;;9.60;3.83;;;;;;;;;;5006074;28;20578;-86
2021/08/25 05:39:23;;;;;;;9.88;4.32;;;;;;;;;;4986302;28;20124;-90
2021/08/25 05:41:50;;;;;;;17.90;4.28;;;;;;;;;;5000564;28;20043;-85
2021/08/25 05:44:17;;;;;;;13.50;4.43;;;;;;;;;;5007232;28;20046;-79
2021/08/25 05:46:45;;;;;;;12.85;4.13;;;;;;;;;;5000699;28;20113;-81
2021/08/25 05:49:12;;;;;;;9.93;3.30;;;;;;;;;;4994845;28;20133;-81
2021/08/25 05:51:39;;;;;;;9.65;4.05;;;;;;;;;;5010122;28;20405;-81
2021/08/25 05:54:13;;;;;;;22.40;4.00;;;;;;;;;;5010800;28;20052;-81
2021/08/25 05:56:41;;;;;;;10.38;4.10;;;;;;;;;;5003673;28;20057;-81
2021/08/25 05:59:08;;;;;;;11.68;3.55;;;;;;;;;;5001805;28;20121;-81
2021/08/25 06:01:36;;;;;;;12.23;4.03;;;;;;;;;;5009651;28;20045;-80
2021/08/25 06:04:04;;;;;;;10.60;4.05;;;;;;;;;;5004477;28;20053;-79
2021/08/25 06:06:34;;;;;;;10.18;3.97;;;;;;;;;;5006620;28;20058;-79
2021/08/25 06:09:04;;;;;;;7.05;3.45;;;;;;;;;;5000134;28;20810;-81
2021/08/25 06:11:32;;;;;;;8.73;3.45;;;;;;;;;;5007048;28;20088;-80
2021/08/25 06:13:59;;;;;;;13.02;4.40;;;;;;;;;;4992996;28;20085;-81
2021/08/25 06:16:26;;;;;;;8.55;3.60;;;;;;;;;;5009964;28;20137;-80
2021/08/25 06:18:54;;;;;;;13.15;4.20;;;;;;;;;;5003213;28;20053;-80
2021/08/25 06:21:22;;;;;;;10.45;3.47;;;;;;;;;;4989599;28;20112;-80
2021/08/25 06:23:51;;;;;;;12.90;3.67;;;;;;;;;;5009136;28;20439;-80
2021/08/25 06:26:18;;;;;;;13.98;4.05;;;;;;;;;;5006105;28;20467;-80
2021/08/25 06:28:46;;;;;;;7.72;3.75;;;;;;;;;;5002333;28;20498;-80
2021/08/25 06:31:13;;;;;;;10.73;3.35;;;;;;;;;;5007563;28;20074;-81
2021/08/25 06:33:42;;;;;;;10.70;3.63;;;;;;;;;;5012481;28;20045;-80
2021/08/25 06:36:10;;;;;;;10.95;3.67;;;;;;;;;;5013837;28;20073;-80
2021/08/25 06:38:37;;;;;;;7.85;3.33;;;;;;;;;;5012485;28;20507;-80
2021/08/25 06:41:04;;;;;;;11.82;3.30;;;;;;;;;;5016085;28;20104;-80
2021/08/25 06:43:31;;;;;;;14.98;3.85;;;;;;;;;;5018550;28;20085;-80
2021/08/25 06:46:00;;;;;;;8.93;3.88;;;;;;;;;;5009953;28;20615;-79
2021/08/25 06:48:27;;;;;;;8.23;3.40;;;;;;;;;;5009869;28;20054;-79
2021/08/25 06:50:54;;;;;;;11.07;3.45;;;;;;;;;;5000217;28;20080;-81
2021/08/25 06:53:22;;;;;;;14.65;4.30;;;;;;;;;;5003135;28;20081;-82
2021/08/25 06:55:49;;;;;;;15.05;3.65;;;;;;;;;;5013546;28;20050;-81
2021/08/25 06:58:16;;;;;;;9.82;3.75;;;;;;;;;;5013884;28;20128;-81
2021/08/25 07:00:43;;;;;;;10.18;3.45;;;;;;;;;;5013895;28;20730;-81
2021/08/25 07:03:11;;;;;;;9.65;3.20;;;;;;;;;;5003661;28;20045;-80
2021/08/25 07:05:38;;;;;;;12.52;3.60;;;;;;;;;;5021374;28;20691;-81
2021/08/25 07:08:05;;;;;;;14.30;3.65;;;;;;;;;;5014196;28;20085;-81
2021/08/25 07:10:32;;;;;;;8.20;3.20;;;;;;;;;;5014859;28;20125;-81
2021/08/25 07:13:00;;;;;;;11.35;3.33;;;;;;;;;;4997129;28;20054;-81
2021/08/25 07:15:27;;;;;;;9.25;3.67;;;;;;;;;;4999975;28;20138;-82
2021/08/25 07:17:54;;;;;;;7.60;3.17;;;;;;;;;;5014525;28;20046;-81
2021/08/25 07:20:41;;;;;;;7.63;2.97;;;;;;;;;;4999258;28;20050;-81
2021/08/25 07:23:11;;;;;;;9.20;3.70;;;;;;;;;;5014015;28;20129;-80
2021/08/25 07:25:39;;;;;;;10.70;3.00;;;;;;;;;;4994681;28;20133;-81
2021/08/25 07:28:13;;;;;;;6.95;3.67;;;;;;;;;;5011783;28;20042;-81
2021/08/25 07:30:41;;;;;;;8.55;3.20;;;;;;;;;;5012424;28;20042;-81
2021/08/25 07:33:15;;;;;;;7.85;3.42;;;;;;;;;;5012692;28;20057;-81
2021/08/25 07:35:46;;;;;;;9.00;3.70;;;;;;;;;;4979682;28;20058;-82
2021/08/25 07:38:14;;;;;;;6.93;3.00;;;;;;;;;;5015808;28;20103;-80
2021/08/25 07:40:42;;;;;;;9.48;3.10;;;;;;;;;;4977316;28;20054;-81
2021/08/25 07:43:11;;;;;;;9.20;3.45;;;;;;;;;;5010549;28;20132;-81
2021/08/25 07:45:38;;;;;;;13.65;3.60;;;;;;;;;;4996060;28;20080;-80
2021/08/25 07:48:05;;;;;;;6.45;3.17;;;;;;;;;;5013144;28;20438;-81
2021/08/25 07:50:33;;;;;;;8.70;3.42;;;;;;;;;;5009212;28;20132;-82
2021/08/25 07:53:00;;;;;;;13.35;3.63;;;;;;;;;;5012839;28;20061;-82
2021/08/25 07:55:27;;;;;;;7.55;3.15;;;;;;;;;;5013052;28;20128;-80
2021/08/25 07:57:55;;;;;;;5.38;2.65;;;;;;;;;;5008291;28;20105;-80
2021/08/25 08:00:22;;;;;;;11.85;3.70;;;;;;;;;;4992294;28;20494;-80
2021/08/25 08:02:50;;;;;;;6.25;3.25;;;;;;;;;;5002849;28;20058;-79
2021/08/25 08:05:19;;;;;;;10.52;3.70;;;;;;;;;;5009500;28;20050;-80
2021/08/25 08:07:46;;;;;;;16.88;3.60;;;;;;;;;;5004327;28;20042;-79
2021/08/25 08:10:13;;;;;;;13.77;3.55;;;;;;;;;;5009752;28;20092;-80
2021/08/25 08:12:41;;;;;;;11.70;3.15;;;;;;;;;;4994985;28;20077;-80
2021/08/25 08:15:12;;;;;;;6.20;3.05;;;;;;;;;;4997287;28;20125;-81
2021/08/25 08:17:42;;;;;;;8.45;3.72;;;;;;;;;;4987283;28;20153;-81
2021/08/25 08:20:09;;;;;;;7.45;3.65;;;;;;;;;;5014112;28;20045;-80
2021/08/25 08:22:37;;;;;;;7.30;2.92;;;;;;;;;;4994119;28;20077;-81
2021/08/25 08:25:07;;;;;;;5.03;2.42;;;;;;;;;;4994520;28;20096;-81
2021/08/25 08:27:34;;;;;;;4.45;2.42;;;;;;;;;;5011634;28;20046;-79
2021/08/25 08:30:02;;;;;;;5.40;2.05;;;;;;;;;;5016292;28;20092;-79
2021/08/25 08:32:29;;;;;;;7.65;2.42;;;;;;;;;;4983033;28;20133;-80
2021/08/25 08:34:56;;;;;;;9.43;2.92;;;;;;;;;;5011170;28;20487;-80
2021/08/25 08:37:24;;;;;;;4.57;2.25;;;;;;;;;;4994136;28;20054;-79
2021/08/25 08:39:51;;;;;;;6.38;2.10;;;;;;;;;;5012235;28;21071;-81
2021/08/25 08:42:26;;;;;;;2.67;1.70;;;;;;;;;;5031575;28;20085;-80
2021/08/25 08:44:55;;;;;;;3.47;1.60;;;;;;;;;;5022718;28;20093;-83
2021/08/25 08:47:23;;;;;;;10.13;2.10;;;;;;;;;;4981765;28;20399;-79
2021/08/25 08:49:52;;;;;;;5.30;1.60;;;;;;;;;;5008731;28;20046;-82
2021/08/25 08:52:22;;;;;;;16.02;1.88;;;;;;;;;;5006142;28;20137;-81
2021/08/25 08:54:51;;;;;;;8.63;1.88;;;;;;;;;;5006555;28;20073;-79
2021/08/25 08:57:18;;;;;;;5.25;1.63;;;;;;;;;;5011281;28;20057;-79
2021/08/25 08:59:47;;;;;;;7.97;1.90;;;;;;;;;;5008343;28;20074;-81
2021/08/25 09:02:39;;;;;;;7.43;2.22;;;;;;;;;;4990825;28;20049;-79
2021/08/25 09:05:34;;;;;;;4.15;1.45;;;;;;;;;;5018346;28;20053;-84
2021/08/25 09:08:03;;;;;;;3.40;1.20;;;;;;;;;;5014966;28;20058;-82
2021/08/25 09:10:31;;;;;;;5.97;1.20;;;;;;;;;;5008231;28;20777;-82
2021/08/25 09:13:02;;;;;;;2.95;1.25;;;;;;;;;;4980271;28;20077;-82
2021/08/25 09:15:31;;;;;;;2.60;1.00;;;;;;;;;;5006129;28;20050;-84
2021/08/25 09:18:03;;;;;;;9.43;1.10;;;;;;;;;;5004520;28;20108;-82
2021/08/25 09:20:32;;;;;;;9.40;1.25;;;;;;;;;;5007390;28;20100;-80
2021/08/25 09:23:19;;;;;;;5.13;1.25;;;;;;;;;;5008788;28;20129;-86
2021/08/25 09:25:48;;;;;;;8.63;1.40;;;;;;;;;;5002887;28;20073;-86
2021/08/25 09:28:20;;;;;;;4.63;1.00;;;;;;;;;;4992826;28;20531;-84
2021/08/25 09:30:54;;;;;;;4.05;1.17;;;;;;;;;;5006088;28;20160;-84
2021/08/25 09:33:28;;;;;;;3.53;1.20;;;;;;;;;;5002313;28;20105;-82
2021/08/25 09:35:56;;;;;;;6.03;0.90;;;;;;;;;;5003523;28;20100;-83
2021/08/25 09:38:28;;;;;;;6.03;1.40;;;;;;;;;;4995395;28;20117;-82
2021/08/25 09:40:57;;;;;;;4.00;1.20;;;;;;;;;;5010823;28;20158;-81
2021/08/25 09:43:35;;;;;;;4.82;1.13;;;;;;;;;;4984560;28;20133;-82
2021/08/25 09:46:22;;;;;;;1.88;0.90;;;;;;;;;;4990468;28;20149;-82
2021/08/25 09:48:50;;;;;;;3.10;1.00;;;;;;;;;;5028722;28;20069;-82
2021/08/25 09:51:23;;;;;;;9.75;1.25;;;;;;;;;;5010110;28;20486;-82
2021/08/25 09:53:51;;;;;;;3.58;1.08;;;;;;;;;;5010939;28;20049;-83
2021/08/25 09:56:19;;;;;;;13.43;1.25;;;;;;;;;;4988040;28;20093;-84
2021/08/25 09:58:47;;;;;;;5.28;1.60;;;;;;;;;;4999668;28;20141;-82
2021/08/25 10:01:16;;;;;;;7.35;1.27;;;;;;;;;;5020884;28;20136;-84
2021/08/25 10:03:44;;;;;;;3.63;1.40;;;;;;;;;;5010348;28;20504;-82
2021/08/25 10:06:14;;;;;;;5.20;1.20;;;;;;;;;;5013756;28;20049;-84
2021/08/25 10:08:42;;;;;;;1.90;1.08;;;;;;;;;;4997185;28;20832;-83
2021/08/25 10:11:10;;;;;;;1.90;0.98;;;;;;;;;;4999936;28;20125;-83
2021/08/25 10:13:37;;;;;;;3.72;1.10;;;;;;;;;;4994483;28;20882;-83
2021/08/25 10:16:04;;;;;;;8.05;2.15;;;;;;;;;;5013704;28;20069;-84
2021/08/25 10:18:42;;;;;;;5.20;1.58;;;;;;;;;;5015538;28;20164;-84
2021/08/25 10:21:28;;;;;;;5.20;1.50;;;;;;;;;;4997424;28;20082;-82
2021/08/25 10:23:58;;;;;;;4.78;1.25;;;;;;;;;;4994544;28;20464;-84
2021/08/25 10:26:33;;;;;;;1.60;1.13;;;;;;;;;;5013916;28;20042;-83
2021/08/25 10:29:09;;;;;;;7.28;1.08;;;;;;;;;;5013123;28;20046;-81
2021/08/25 10:31:51;;;;;;;7.80;1.30;;;;;;;;;;5007755;28;20053;-84
2021/08/25 10:34:27;;;;;;;3.85;1.10;;;;;;;;;;4997886;28;20045;-82
2021/08/25 10:36:54;;;;;;;;;;;;;;;;;;5012446;28;20129;-81
2021/08/25 10:39:31;;;;;;;3.97;1.27;;;;;;;;;;5013901;28;19968;-82
2021/08/25 10:41:59;;;;;;;4.47;1.15;;;;;;;;;;5007405;28;20050;-81
2021/08/25 10:44:42;;;;;;;5.63;1.50;;;;;;;;;;5014392;28;20046;-82
2021/08/25 10:47:10;;;;;;;5.45;1.10;;;;;;;;;;5008691;28;20132;-81
2021/08/25 10:49:39;;;;;;;2.67;1.30;;;;;;;;;;4996773;28;20085;-81
2021/08/25 10:52:27;;;;;;;3.92;1.40;;;;;;;;;;5014762;28;20387;-83
2021/08/25 10:54:55;;;;;;;3.33;1.40;;;;;;;;;;5013102;28;20129;-81
2021/08/25 10:57:24;;;;;;;6.03;1.25;;;;;;;;;;5012839;28;20441;-81
2021/08/25 10:59:53;;;;;;;5.82;1.70;;;;;;;;;;5006641;28;20057;-82
2021/08/25 11:02:20;;;;;;;2.42;1.40;;;;;;;;;;5013144;28;20100;-81
2021/08/25 11:04:47;;;;;;;9.75;4.13;;;;;;;;;;4997499;28;20125;-81
2021/08/25 11:07:15;;;;;;;9.00;4.25;;;;;;;;;;4996090;28;20112;-81
2021/08/25 11:09:50;;;;;;;19.25;6.35;;;;;;;;;;5012240;28;20045;-83
2021/08/25 11:12:21;;;;;;;12.60;5.30;;;;;;;;;;5006794;28;20074;-81
2021/08/25 11:14:54;;;;;;;7.40;3.33;;;;;;;;;;5015014;28;20124;-82
2021/08/25 11:17:26;;;;;;;5.10;1.55;;;;;;;;;;5011401;28;20051;-80
2021/08/25 11:19:53;;;;;;;3.35;1.80;;;;;;;;;;4977081;28;20137;-80
2021/08/25 11:22:32;;;;;;;3.65;1.30;;;;;;;;;;5010106;28;20146;-82
2021/08/25 11:25:05;;;;;;;10.38;1.27;;;;;;;;;;5013410;28;20041;-82
2021/08/25 11:27:45;;;;;;;5.72;1.92;;;;;;;;;;5012727;28;20103;-80
2021/08/25 11:30:16;;;;;;;6.07;3.28;;;;;;;;;;5014151;28;20144;-82
2021/08/25 11:32:56;;;;;;;5.45;2.50;;;;;;;;;;5012209;28;20088;-82
2021/08/25 11:35:27;;;;;;;3.85;1.40;;;;;;;;;;5007166;28;20140;-80
2021/08/25 11:37:55;;;;;;;6.15;1.20;;;;;;;;;;5013755;28;20082;-80
2021/08/25 11:40:23;;;;;;;3.00;1.30;;;;;;;;;;5016224;28;20394;-81
2021/08/25 11:42:50;;;;;;;3.65;1.40;;;;;;;;;;5020985;28;20132;-81
2021/08/25 11:45:19;;;;;;;3.42;1.25;;;;;;;;;;5022936;28;20061;-79
2021/08/25 11:47:47;;;;;;;5.03;1.50;;;;;;;;;;5006093;28;20394;-82
2021/08/25 11:50:23;;;;;;;3.85;1.27;;;;;;;;;;5014933;28;20671;-82
2021/08/25 11:52:50;;;;;;;;;;;;;;;;;;5014233;28;20078;-82
2021/08/25 11:55:18;;;;;;;5.72;1.30;;;;;;;;;;5010068;28;19965;-83
2021/08/25 11:57:49;;;;;;;5.60;1.50;;;;;;;;;;5013391;28;20084;-79
2021/08/25 12:00:18;;;;;;;3.97;1.23;;;;;;;;;;5014609;28;20128;-80
2021/08/25 12:02:56;;;;;;;3.05;1.33;;;;;;;;;;5027619;28;20816;-80
2021/08/25 12:05:25;;;;;;;6.43;1.23;;;;;;;;;;5007786;28;20046;-80
2021/08/25 12:07:59;;;;;;;11.77;1.10;;;;;;;;;;5004131;28;20097;-81
2021/08/25 12:10:26;;;;;;;4.53;1.10;;;;;;;;;;5007177;28;20069;-80
2021/08/25 12:12:56;;;;;;;4.78;1.13;;;;;;;;;;5031332;28;20053;-80
2021/08/25 12:15:42;;;;;;;2.20;1.00;;;;;;;;;;5018324;28;20054;-81
2021/08/25 12:18:11;;;;;;;5.38;1.58;;;;;;;;;;5011268;28;20068;-81
2021/08/25 12:20:39;;;;;;;3.47;1.20;;;;;;;;;;5008190;28;20575;-82
2021/08/25 12:23:07;;;;;;;28.10;2.35;;;;;;;;;;4990553;28;20037;-82
2021/08/25 12:25:43;;;;;;;5.05;1.52;;;;;;;;;;5009592;28;20045;-81
2021/08/25 12:28:11;;;;;;;6.75;1.48;;;;;;;;;;5009013;28;20461;-80
2021/08/25 12:30:40;;;;;;;10.70;1.90;;;;;;;;;;5012848;28;20061;-80
2021/08/25 12:33:08;;;;;;;6.07;1.67;;;;;;;;;;5011017;28;20517;-81
2021/08/25 12:35:36;;;;;;;2.03;1.02;;;;;;;;;;4994797;28;20105;-80
2021/08/25 12:38:04;;;;;;;4.43;1.30;;;;;;;;;;5011573;28;20084;-80
2021/08/25 12:40:32;;;;;;;3.78;1.05;;;;;;;;;;5004563;28;20085;-81
2021/08/25 12:43:00;;;;;;;2.00;1.23;;;;;;;;;;5011354;28;20081;-81
2021/08/25 12:45:29;;;;;;;9.40;1.70;;;;;;;;;;5012863;28;20073;-81
2021/08/25 12:47:56;;;;;;;2.00;1.00;;;;;;;;;;5012242;28;20065;-81
2021/08/25 12:50:25;;;;;;;6.65;1.23;;;;;;;;;;5007898;28;20101;-81
2021/08/25 12:52:52;;;;;;;2.35;1.17;;;;;;;;;;4993784;28;20510;-81
2021/08/25 12:55:21;;;;;;;2.60;0.93;;;;;;;;;;4996628;28;20046;-82
2021/08/25 12:57:48;;;;;;;8.30;2.08;;;;;;;;;;5010594;28;20084;-83
2021/08/25 13:00:16;;;;;;;2.75;0.93;;;;;;;;;;5017366;28;20059;-84
2021/08/25 13:02:43;;;;;;;5.10;1.85;;;;;;;;;;4994251;28;20060;-84
2021/08/25 13:05:12;;;;;;;7.03;1.30;;;;;;;;;;4997697;28;20156;-83
2021/08/25 13:07:40;;;;;;;2.65;1.08;;;;;;;;;;4996681;28;20050;-82
2021/08/25 13:10:08;;;;;;;7.20;1.95;;;;;;;;;;5004856;28;20120;-83
2021/08/25 13:12:35;;;;;;;3.25;1.10;;;;;;;;;;5028710;28;20080;-82
2021/08/25 13:15:03;;;;;;;5.25;1.15;;;;;;;;;;5005831;28;20132;-84
2021/08/25 13:17:30;;;;;;;5.03;1.10;;;;;;;;;;4992810;28;20100;-82
2021/08/25 13:19:58;;;;;;;9.07;1.25;;;;;;;;;;5000258;28;20779;-82
2021/08/25 13:22:25;;;;;;;6.75;1.13;;;;;;;;;;5010196;28;20054;-82
2021/08/25 13:24:52;;;;;;;1.83;1.08;;;;;;;;;;4995648;28;20128;-84
2021/08/25 13:27:19;;;;;;;3.63;1.42;;;;;;;;;;4994806;28;20517;-82
2021/08/25 13:29:47;;;;;;;4.20;0.80;;;;;;;;;;5004870;28;20128;-81
2021/08/25 13:32:15;;;;;;;1.58;1.00;;;;;;;;;;5011628;28;20103;-81
2021/08/25 13:34:42;;;;;;;0.93;0.73;;;;;;;;;;5010692;28;20141;-84
2021/08/25 13:37:10;;;;;;;1.52;0.70;;;;;;;;;;5006922;28;20089;-82
2021/08/25 13:39:37;;;;;;;8.40;0.95;;;;;;;;;;4999989;28;20129;-81
2021/08/25 13:42:06;;;;;;;4.38;1.20;;;;;;;;;;5011852;28;20754;-81
2021/08/25 13:44:33;;;;;;;6.03;1.13;;;;;;;;;;5015667;28;20050;-83
2021/08/25 13:47:00;;;;;;;13.18;1.20;;;;;;;;;;5013628;28;20112;-83
2021/08/25 13:49:33;;;;;;;3.22;0.88;;;;;;;;;;5010722;28;20077;-82
2021/08/25 13:52:00;;;;;;;4.30;1.00;;;;;;;;;;5005255;28;20037;-81
2021/08/25 13:54:27;;;;;;;3.90;0.70;;;;;;;;;;5007074;28;20815;-81
2021/08/25 13:56:55;;;;;;;4.55;1.15;;;;;;;;;;5006635;28;20125;-80
2021/08/25 13:59:25;;;;;;;4.38;1.08;;;;;;;;;;5000523;28;20054;-81
2021/08/25 14:01:55;;;;;;;2.17;0.82;;;;;;;;;;5005884;28;20501;-82
2021/08/25 14:04:24;;;;;;;1.08;0.50;;;;;;;;;;4997407;28;20045;-80
2021/08/25 14:07:01;;;;;;;7.78;0.90;;;;;;;;;;5008666;28;20053;-81
2021/08/25 14:09:30;;;;;;;10.05;0.80;;;;;;;;;;4999210;28;20137;-79
2021/08/25 14:11:57;;;;;;;3.10;0.85;;;;;;;;;;5005224;28;20043;-80
2021/08/25 14:14:24;;;;;;;5.65;0.90;;;;;;;;;;5004365;28;20062;-79
2021/08/25 14:16:53;;;;;;;2.00;0.80;;;;;;;;;;5006414;28;20050;-80
2021/08/25 14:19:21;;;;;;;2.90;0.90;;;;;;;;;;5007923;28;20056;-81
2021/08/25 14:21:55;;;;;;;9.07;0.88;;;;;;;;;;5005221;28;20070;-81
2021/08/25 14:24:23;;;;;;;2.42;0.50;;;;;;;;;;5003705;28;20046;-82
2021/08/25 14:26:50;;;;;;;2.40;0.60;;;;;;;;;;5002026;28;20081;-80
2021/08/25 14:29:19;;;;;;;8.93;1.15;;;;;;;;;;5002520;28;20069;-79
2021/08/25 14:31:48;;;;;;;1.48;0.90;;;;;;;;;;4985393;28;20372;-79
2021/08/25 14:34:16;;;;;;;0.90;0.70;;;;;;;;;;5005204;28;20049;-80
2021/08/25 14:36:43;;;;;;;2.60;0.90;;;;;;;;;;4992977;28;20049;-80
2021/08/25 14:39:10;;;;;;;15.18;2.00;;;;;;;;;;4984312;28;20060;-79
2021/08/25 14:41:38;;;;;;;2.90;1.10;;;;;;;;;;5004863;28;20125;-79
2021/08/25 14:44:05;;;;;;;2.55;1.05;;;;;;;;;;5007719;28;20038;-78
2021/08/25 14:46:32;;;;;;;1.80;1.00;;;;;;;;;;4986869;28;20085;-78
2021/08/25 14:48:59;;;;;;;2.47;1.15;;;;;;;;;;5001426;28;20068;-78
2021/08/25 14:51:27;;;;;;;3.25;1.40;;;;;;;;;;4999285;28;20080;-79